Time;durP1;ratioP1;P1;durP2;ratioP2;P2;SDS_P1;SDS_P2;PMS_P1;PMS_P2;Temp;Humidity;BMP_temperature;BMP_pressure;BME280_temperature;BME280_humidity;BME280_pressure;Samples;Min_cycle;Max_cycle;Signal;HPM_P1;HPM_P2
2020/12/07 00:00:03;;;;;;;2.72;2.20;;;5.60;93.60;;;9.23;77.36;99682.44;4969398;28;99995;-76
2020/12/07 00:02:31;;;;;;;4.30;1.63;;;5.60;93.60;;;9.27;77.27;99675.34;4942796;28;96774;-76
2020/12/07 00:05:02;;;;;;;6.68;2.40;;;5.60;93.60;;;9.15;77.70;99675.22;4925653;28;96673;-76
2020/12/07 00:07:31;;;;;;;0.88;0.88;;;5.60;93.90;;;9.15;77.62;99679.75;4938610;28;96840;-76
2020/12/07 00:10:01;;;;;;;2.17;2.00;;;5.60;93.60;;;9.14;77.79;99675.53;4920368;28;100000;-76
2020/12/07 00:12:33;;;;;;;2.42;1.75;;;5.60;93.60;;;9.14;77.68;99673.66;4935955;28;97710;-76
2020/12/07 00:15:06;;;;;;;0.63;0.63;;;5.60;93.60;;;9.11;77.62;99658.25;4974703;28;96956;-76
2020/12/07 00:17:34;;;;;;;1.45;0.98;;;5.60;93.60;;;9.06;78.28;99668.31;4950796;28;97236;-76
2020/12/07 00:20:06;;;;;;;4.40;1.45;;;5.60;93.60;;;9.02;78.18;99662.84;4954595;28;96863;-77
2020/12/07 00:22:34;;;;;;;2.65;1.38;;;5.60;93.60;;;9.01;78.39;99669.28;4958841;28;97744;-77
2020/12/07 00:25:05;;;;;;;1.80;1.55;;;5.60;93.60;;;9.09;78.10;99665.00;4968949;28;96770;-77
2020/12/07 00:27:35;;;;;;;1.25;1.15;;;5.60;93.60;;;9.21;77.60;99671.28;4933764;28;96890;-77
2020/12/07 00:30:07;;;;;;;1.77;1.65;;;5.60;93.60;;;9.12;77.82;99686.53;4933347;28;97150;-76
2020/12/07 00:32:35;;;;;;;5.65;1.88;;;5.60;93.60;;;9.22;77.49;99683.53;4930639;28;97790;-76
2020/12/07 00:35:05;;;;;;;2.88;2.15;;;5.60;93.60;;;9.24;77.29;99675.97;4932437;28;96769;-77
2020/12/07 00:37:33;;;;;;;1.73;1.63;;;5.60;93.60;;;9.23;77.54;99674.41;4944366;28;96984;-77
2020/12/07 00:40:02;;;;;;;2.53;1.88;;;5.60;93.60;;;9.23;77.44;99666.38;4931533;28;97958;-77
2020/12/07 00:42:33;;;;;;;3.15;1.73;;;5.60;93.60;;;9.29;77.24;99654.41;4923274;28;97207;-77
2020/12/07 00:45:02;;;;;;;6.53;2.35;;;5.60;93.60;;;9.15;77.82;99651.16;4940436;28;96702;-76
2020/12/07 00:47:31;;;;;;;4.97;2.00;;;5.60;93.60;;;9.19;77.58;99641.41;4934249;28;96678;-76
2020/12/07 00:49:58;;;;;;;2.13;1.67;;;5.60;93.60;;;9.13;78.05;99645.34;4938878;28;96683;-76
2020/12/07 00:52:26;;;;;;;11.15;1.83;;;5.60;93.70;;;9.12;78.01;99643.00;4974310;28;98043;-76
2020/12/07 00:54:53;;;;;;;3.63;1.98;;;5.60;93.60;;;9.15;77.95;99631.66;4933118;28;97049;-76
2020/12/07 00:57:21;;;;;;;1.83;1.67;;;5.60;93.60;;;9.13;78.06;99639.22;4931407;28;96765;-76
2020/12/07 00:59:50;;;;;;;14.75;3.58;;;5.60;93.70;;;9.13;77.90;99644.56;4932836;28;98460;-77
2020/12/07 01:02:17;;;;;;;2.05;1.85;;;5.60;93.70;;;9.16;77.90;99649.25;4932391;28;97065;-77
2020/12/07 01:04:45;;;;;;;2.85;1.75;;;5.60;93.60;;;9.19;77.77;99657.44;4943579;28;96637;-76
2020/12/07 01:07:15;;;;;;;4.95;2.15;;;5.60;93.70;;;9.26;77.48;99654.28;4930428;28;97080;-77
2020/12/07 01:09:47;;;;;;;1.03;1.03;;;5.60;93.60;;;9.26;77.42;99649.72;4934103;28;97884;-77
2020/12/07 01:12:15;;;;;;;1.42;1.33;;;5.60;93.60;;;9.26;77.36;99655.06;4932252;28;96768;-77
2020/12/07 01:14:49;;;;;;;2.55;1.92;;;5.60;93.70;;;9.27;77.85;99661.19;4952583;28;96907;-76
2020/12/07 01:17:18;;;;;;;1.65;1.35;;;5.60;93.70;;;9.30;77.25;99646.09;4951280;28;96760;-76
2020/12/07 01:19:48;;;;;;;3.33;2.15;;;5.60;93.70;;;9.36;77.04;99650.16;4935479;28;96951;-76
2020/12/07 01:22:23;;;;;;;4.82;1.40;;;5.60;93.70;;;9.43;76.82;99644.31;4920234;28;98092;-77
2020/12/07 01:24:52;;;;;;;1.02;1.02;;;5.60;93.70;;;9.43;76.88;99634.41;4962389;28;96619;-76
2020/12/07 01:27:20;;;;;;;3.88;1.77;;;5.70;93.70;;;9.39;76.78;99638.81;4943151;28;97214;-76
2020/12/07 01:29:48;;;;;;;1.90;1.45;;;5.70;93.70;;;9.33;77.11;99645.47;4959663;28;97156;-76
2020/12/07 01:32:18;;;;;;;3.55;1.25;;;5.60;93.70;;;9.27;77.41;99637.91;4960025;28;99168;-76
2020/12/07 01:34:46;;;;;;;1.48;1.23;;;5.60;93.70;;;9.27;77.66;99640.59;4960433;28;96806;-76
2020/12/07 01:37:16;;;;;;;2.85;1.55;;;5.70;93.70;;;9.29;77.29;99617.81;4944957;28;97008;-76
2020/12/07 01:39:44;;;;;;;1.85;1.38;;;5.70;93.70;;;9.27;77.43;99619.22;4938795;28;97012;-77
2020/12/07 01:42:15;;;;;;;1.00;1.00;;;5.70;93.70;;;9.20;77.66;99621.59;4938052;28;96901;-77
2020/12/07 01:44:42;;;;;;;2.33;1.42;;;5.60;93.70;;;9.22;77.66;99626.63;4963291;28;97062;-76
2020/12/07 01:47:22;;;;;;;2.67;1.90;;;5.70;93.70;;;9.27;77.06;99613.88;4928538;28;97110;-76
2020/12/07 01:49:55;;;;;;;3.72;2.58;;;5.70;93.70;;;9.35;77.09;99613.84;4927740;28;97794;-76
2020/12/07 01:52:26;;;;;;;1.52;1.27;;;5.70;93.70;;;9.28;77.27;99618.91;4944512;28;97546;-76
2020/12/07 01:54:56;;;;;;;1.83;1.20;;;5.70;93.70;;;9.25;77.70;99615.31;4965709;28;97044;-76
2020/12/07 01:57:32;;;;;;;1.75;1.65;;;5.60;93.70;;;9.20;77.99;99616.25;4974646;28;96808;-76
2020/12/07 02:00:08;;;;;;;2.15;1.95;;;5.70;93.70;;;9.26;77.73;99619.56;4964016;28;98503;-76
2020/12/07 02:02:50;;;;;;;5.70;1.20;;;5.70;93.70;;;9.27;77.60;99622.69;4939213;28;97888;-76
2020/12/07 02:05:24;;;;;;;4.68;2.58;;;5.70;93.70;;;9.17;77.67;99619.56;4938145;28;96720;-76
2020/12/07 02:08:12;;;;;;;2.03;1.55;;;5.60;93.70;;;9.23;77.66;99623.63;4915520;28;96782;-76
2020/12/07 02:10:47;;;;;;;2.08;1.45;;;5.70;93.70;;;9.24;77.92;99613.75;4926953;28;98151;-76
2020/12/07 02:13:17;;;;;;;3.08;1.70;;;5.70;93.70;;;9.20;77.82;99604.78;4934298;28;97682;-76
2020/12/07 02:15:46;;;;;;;2.33;1.50;;;5.70;93.70;;;9.18;77.84;99599.75;4956559;28;96785;-76
2020/12/07 02:18:18;;;;;;;3.67;2.42;;;5.70;93.70;;;9.20;77.93;99600.22;4932983;28;96722;-76
2020/12/07 02:20:49;;;;;;;2.05;1.33;;;5.70;93.70;;;9.20;77.86;99592.19;4929325;28;97931;-76
2020/12/07 02:23:37;;;;;;;4.13;1.30;;;5.70;94.00;;;9.19;78.16;99585.28;4927995;28;98301;-76
2020/12/07 02:26:13;;;;;;;1.65;0.80;;;5.70;93.70;;;9.15;78.12;99573.69;4916076;28;96781;-76
2020/12/07 02:28:41;;;;;;;2.67;0.85;;;5.70;93.70;;;9.15;78.07;99567.53;4930813;28;96684;-76
2020/12/07 02:31:11;;;;;;;0.43;0.43;;;5.70;93.70;;;9.12;78.19;99568.97;4945863;28;97881;-76
2020/12/07 02:33:40;;;;;;;1.45;0.93;;;5.70;93.70;;;9.16;78.01;99580.59;4963766;28;97793;-76
2020/12/07 02:36:11;;;;;;;0.75;0.60;;;5.70;93.70;;;9.15;78.15;99579.03;4934875;28;96662;-76
2020/12/07 02:38:47;;;;;;;0.35;0.35;;;5.70;93.70;;;9.21;77.95;99564.38;4964745;28;97065;-76
2020/12/07 02:41:15;;;;;;;4.35;1.40;;;5.70;93.70;;;9.18;77.87;99557.00;4921247;28;97933;-76
2020/12/07 02:43:43;;;;;;;1.33;0.43;;;5.70;93.70;;;9.19;78.10;99555.91;4936191;28;97012;-76
2020/12/07 02:46:12;;;;;;;0.55;0.38;;;5.70;93.70;;;9.15;77.92;99554.97;4906363;28;97108;-76
2020/12/07 02:48:41;;;;;;;1.20;0.57;;;5.70;93.70;;;9.17;78.31;99549.31;4957778;28;96760;-76
2020/12/07 02:51:12;;;;;;;0.40;0.40;;;5.70;93.70;;;9.20;77.98;99549.44;4939954;28;97033;-76
2020/12/07 02:53:41;;;;;;;2.53;1.17;;;5.70;93.70;;;9.15;77.62;99543.47;4929128;28;96896;-76
2020/12/07 02:56:11;;;;;;;1.92;1.55;;;5.70;93.70;;;9.15;78.02;99546.97;4945695;28;96744;-76
2020/12/07 02:58:47;;;;;;;1.85;0.75;;;5.70;93.70;;;9.16;78.11;99539.72;4926802;28;97039;-76
2020/12/07 03:01:15;;;;;;;0.45;0.45;;;5.70;93.70;;;9.14;78.12;99534.69;4934602;28;98051;-76
2020/12/07 03:03:43;;;;;;;1.48;0.85;;;5.70;93.70;;;9.16;78.01;99531.69;4924179;28;98712;-76
2020/12/07 03:06:11;;;;;;;1.15;1.02;;;5.70;93.70;;;9.14;78.41;99524.00;4937675;28;97434;-76
2020/12/07 03:08:40;;;;;;;1.90;1.08;;;5.70;93.70;;;9.16;78.08;99523.69;4961893;28;97511;-76
2020/12/07 03:11:10;;;;;;;1.33;0.88;;;5.70;93.70;;;9.21;77.83;99516.28;4937626;28;96914;-76
2020/12/07 03:13:40;;;;;;;0.82;0.82;;;5.70;93.70;;;9.13;78.18;99522.44;4941555;28;97676;-76
2020/12/07 03:16:08;;;;;;;1.73;1.63;;;5.70;93.70;;;9.10;78.21;99527.63;4918998;28;96696;-76
2020/12/07 03:18:39;;;;;;;0.30;0.22;;;5.70;94.00;;;9.14;78.18;99521.34;4928637;28;97130;-76
2020/12/07 03:21:09;;;;;;;0.35;0.35;;;5.70;93.70;;;9.08;78.29;99516.50;4968577;28;98974;-76
2020/12/07 03:23:41;;;;;;;0.90;0.90;;;5.70;93.70;;;9.12;78.13;99510.19;4961603;28;98238;-76
2020/12/07 03:26:14;;;;;;;1.55;0.95;;;5.70;93.70;;;9.14;78.43;99517.88;4938276;28;96774;-76
2020/12/07 03:28:42;;;;;;;0.85;0.85;;;5.70;93.70;;;9.15;78.32;99511.41;4927837;28;97420;-76
2020/12/07 03:31:11;;;;;;;1.45;0.82;;;5.70;93.70;;;9.18;77.95;99518.81;4968147;28;97873;-76
2020/12/07 03:33:38;;;;;;;2.33;2.15;;;5.70;93.70;;;9.16;77.93;99519.13;4949420;28;97039;-76
2020/12/07 03:36:08;;;;;;;0.40;0.40;;;5.70;93.80;;;9.12;78.29;99512.88;4929309;28;97476;-76
2020/12/07 03:38:37;;;;;;;0.35;0.35;;;5.70;93.80;;;9.20;77.82;99513.94;4944269;28;97295;-76
2020/12/07 03:41:05;;;;;;;1.27;1.17;;;5.70;93.70;;;9.21;77.82;99508.25;4953831;28;97304;-76
2020/12/07 03:43:38;;;;;;;0.40;0.40;;;5.70;93.80;;;9.11;78.25;99515.84;4951382;28;97783;-76
2020/12/07 03:46:06;;;;;;;3.97;0.77;;;5.70;93.80;;;9.15;78.00;99516.75;4944271;28;96701;-76
2020/12/07 03:48:35;;;;;;;2.75;2.55;;;5.70;93.80;;;9.13;78.24;99527.00;4941351;28;96629;-76
2020/12/07 03:51:07;;;;;;;1.13;0.55;;;5.70;93.80;;;9.08;78.46;99519.97;4964978;28;98048;-76
2020/12/07 03:53:40;;;;;;;1.13;1.03;;;5.70;93.70;;;9.08;78.52;99514.63;4975420;28;97708;-76
2020/12/07 03:56:09;;;;;;;0.30;0.30;;;5.70;93.80;;;9.13;78.30;99510.97;4942322;28;97468;-76
2020/12/07 03:58:40;;;;;;;0.65;0.65;;;5.70;93.80;;;9.13;78.34;99522.44;4916618;28;96983;-76
2020/12/07 04:01:10;;;;;;;0.22;0.22;;;5.70;93.70;;;9.14;78.09;99528.56;4925591;28;97894;-76
2020/12/07 04:03:44;;;;;;;0.73;0.57;;;5.70;93.70;;;9.19;78.05;99515.81;4935711;28;97210;-76
2020/12/07 04:06:19;;;;;;;1.35;0.80;;;5.70;93.80;;;9.17;78.09;99510.00;4964905;28;96820;-76
2020/12/07 04:08:46;;;;;;;0.50;0.50;;;5.70;93.80;;;9.19;78.12;99510.47;4934043;28;96972;-76
2020/12/07 04:11:15;;;;;;;0.15;0.15;;;5.70;93.80;;;9.23;77.94;99513.28;4943630;28;97891;-76
2020/12/07 04:13:43;;;;;;;1.35;1.00;;;5.70;93.80;;;9.23;77.93;99503.38;4942899;28;97951;-76
2020/12/07 04:16:10;;;;;;;1.10;1.00;;;5.70;93.80;;;9.25;77.79;99505.72;4948558;28;97128;-76
2020/12/07 04:18:38;;;;;;;0.88;0.65;;;5.70;93.80;;;9.24;78.08;99496.91;4930392;28;97277;-76
2020/12/07 04:21:06;;;;;;;1.42;1.33;;;5.70;93.80;;;9.32;77.38;99496.09;4929997;28;98559;-76
2020/12/07 04:23:34;;;;;;;1.52;1.08;;;5.70;93.80;;;9.29;77.65;99494.06;4931676;28;96682;-76
2020/12/07 04:26:04;;;;;;;0.10;0.10;;;5.70;94.00;;;9.30;77.50;99500.97;4942058;28;96937;-76
2020/12/07 04:28:32;;;;;;;0.90;0.80;;;5.70;93.80;;;9.25;77.89;99501.16;4942005;28;97217;-76
2020/12/07 04:31:02;;;;;;;0.17;0.17;;;5.70;93.70;;;9.27;77.74;99490.94;4926131;28;96835;-76
2020/12/07 04:33:31;;;;;;;0.25;0.25;;;5.70;93.80;;;9.30;77.48;99500.97;4949560;28;98021;-76
2020/12/07 04:35:59;;;;;;;1.45;0.52;;;5.70;93.80;;;9.30;77.59;99500.97;4926696;28;96741;-76
2020/12/07 04:38:26;;;;;;;1.20;1.00;;;5.70;93.80;;;9.36;77.37;99505.03;4930000;28;96871;-76
2020/12/07 04:40:55;;;;;;;1.45;1.08;;;5.70;93.80;;;9.31;77.54;99510.59;4935291;28;96881;-75
2020/12/07 04:43:24;;;;;;;1.33;1.25;;;5.70;93.80;;;9.39;77.34;99507.84;4929953;28;96840;-76
2020/12/07 04:45:53;;;;;;;0.65;0.65;;;5.70;93.80;;;9.40;77.28;99503.28;4932792;28;98059;-76
2020/12/07 04:48:22;;;;;;;0.55;0.55;;;5.70;93.80;;;9.43;77.17;99508.00;4939883;28;97490;-76
2020/12/07 04:50:51;;;;;;;0.40;0.25;;;5.70;93.80;;;9.46;77.05;99502.78;4925495;28;98131;-76
2020/12/07 04:53:19;;;;;;;0.30;0.30;;;5.70;93.80;;;9.44;77.10;99501.53;4948131;28;97708;-76
2020/12/07 04:55:47;;;;;;;0.28;0.28;;;5.70;93.80;;;9.42;77.16;99493.06;4942717;28;98152;-76
2020/12/07 04:58:15;;;;;;;0.25;0.25;;;5.70;93.80;;;9.39;77.41;99491.03;4924251;28;96590;-76
2020/12/07 05:00:43;;;;;;;0.38;0.38;;;5.70;93.80;;;9.35;77.36;99482.09;4923053;28;97802;-76
2020/12/07 05:03:11;;;;;;;0.50;0.30;;;5.70;93.80;;;9.37;77.24;99485.22;4930931;28;97711;-76
2020/12/07 05:05:39;;;;;;;1.55;0.95;;;5.70;93.80;;;9.37;76.44;99482.56;4950115;28;98212;-76
2020/12/07 05:08:06;;;;;;;0.65;0.65;;;5.70;93.80;;;9.42;77.31;99474.34;4943822;28;97319;-76
2020/12/07 05:10:40;;;;;;;0.38;0.38;;;5.70;93.80;;;9.40;77.07;99485.34;4947376;28;98208;-76
2020/12/07 05:13:16;;;;;;;0.95;0.80;;;5.70;93.80;;;9.44;77.06;99482.81;4940441;28;98780;-77
2020/12/07 05:15:44;;;;;;;0.70;0.70;;;5.70;93.80;;;9.40;77.33;99481.91;4931052;28;97166;-76
2020/12/07 05:18:12;;;;;;;0.47;0.47;;;5.70;93.80;;;9.38;77.22;99470.75;4951499;28;96798;-76
2020/12/07 05:20:40;;;;;;;0.40;0.40;;;5.70;93.80;;;9.31;77.37;99473.94;4957883;28;97067;-76
2020/12/07 05:23:07;;;;;;;0.45;0.40;;;5.70;93.80;;;9.29;77.59;99473.47;4939382;28;97637;-76
2020/12/07 05:25:35;;;;;;;0.65;0.65;;;5.70;93.80;;;9.29;77.70;99480.69;4911518;28;96749;-76
2020/12/07 05:28:07;;;;;;;2.83;0.80;;;5.70;93.80;;;9.30;77.50;99479.59;4944826;28;96810;-76
2020/12/07 05:30:41;;;;;;;0.57;0.57;;;5.70;93.70;;;9.31;77.69;99479.28;4945518;28;96949;-76
2020/12/07 05:33:09;;;;;;;0.73;0.65;;;5.70;93.80;;;9.43;77.37;99473.22;4969804;28;97670;-76
2020/12/07 05:35:40;;;;;;;2.92;0.25;;;5.70;93.80;;;9.45;77.02;99476.38;4940414;28;96676;-76
2020/12/07 05:38:08;;;;;;;0.52;0.40;;;5.70;93.80;;;9.50;77.11;99474.28;4945932;28;96855;-76
2020/12/07 05:40:36;;;;;;;0.55;0.55;;;5.70;93.80;;;9.49;76.84;99461.25;4921194;28;97816;-76
2020/12/07 05:43:05;;;;;;;0.28;0.28;;;5.70;93.80;;;9.49;76.98;99466.59;4915988;28;98107;-76
2020/12/07 05:45:33;;;;;;;0.63;0.63;;;5.70;93.80;;;9.48;77.07;99467.69;4926755;28;96674;-76
2020/12/07 05:48:03;;;;;;;0.88;0.70;;;5.70;93.80;;;9.49;76.96;99471.94;4951998;28;96678;-76
2020/12/07 05:50:38;;;;;;;0.60;0.47;;;5.70;93.80;;;9.46;76.94;99473.38;4937572;28;98063;-75
2020/12/07 05:53:07;;;;;;;0.20;0.20;;;5.70;93.70;;;9.44;77.13;99464.09;4943347;28;97697;-75
2020/12/07 05:55:35;;;;;;;0.30;0.30;;;5.70;93.70;;;9.41;77.19;99470.88;4946908;28;96685;-75
2020/12/07 05:58:06;;;;;;;1.40;0.85;;;5.70;93.80;;;9.47;77.06;99466.13;4925213;28;96947;-77
2020/12/07 06:00:37;;;;;;;0.82;0.38;;;5.70;93.80;;;9.44;77.06;99461.44;4932161;28;99108;-76
2020/12/07 06:03:06;;;;;;;0.82;0.82;;;5.70;93.80;;;9.38;77.28;99468.09;4945790;28;97723;-76
2020/12/07 06:05:35;;;;;;;0.30;0.30;;;5.70;93.80;;;9.35;77.35;99466.06;4943463;28;98080;-76
2020/12/07 06:08:12;;;;;;;0.40;0.40;;;5.70;93.70;;;9.28;77.68;99457.75;4930664;28;97260;-76
2020/12/07 06:10:48;;;;;;;0.22;0.22;;;5.70;93.70;;;9.32;77.84;99451.44;4931671;28;96829;-77
2020/12/07 06:13:21;;;;;;;1.17;0.98;;;5.70;93.80;;;9.32;77.69;99440.75;4922142;28;97768;-77
2020/12/07 06:15:52;;;;;;;1.42;1.33;;;5.80;93.80;;;9.36;77.55;99430.22;4931775;28;96661;-77
2020/12/07 06:18:26;;;;;;;0.35;0.35;;;5.70;93.80;;;9.35;77.46;99439.34;4949572;28;96731;-77
2020/12/07 06:21:05;;;;;;;0.20;0.20;;;5.80;93.80;;;9.35;77.46;99442.00;4936356;28;99180;-78
2020/12/07 06:23:37;;;;;;;0.30;0.30;;;5.70;93.80;;;9.35;77.51;99448.13;4921165;28;97829;-77
2020/12/07 06:26:11;;;;;;;0.30;0.30;;;5.80;93.80;;;9.38;77.20;99452.03;4930739;28;97420;-77
2020/12/07 06:28:41;;;;;;;0.55;0.55;;;5.80;93.80;;;9.44;77.13;99461.44;4913301;28;98147;-77
2020/12/07 06:31:12;;;;;;;1.13;1.08;;;5.80;93.80;;;9.47;77.29;99474.94;4939904;28;97764;-77
2020/12/07 06:33:46;;;;;;;0.45;0.45;;;5.80;93.80;;;9.46;77.18;99468.03;4947185;28;97561;-77
2020/12/07 06:36:31;;;;;;;0.73;0.73;;;5.80;93.80;;;9.45;77.08;99460.31;4952896;28;96699;-77
2020/12/07 06:39:05;;;;;;;0.43;0.43;;;5.70;93.70;;;9.46;77.07;99469.91;4946406;28;96818;-77
2020/12/07 06:41:40;;;;;;;;;;;5.70;93.70;;;9.41;77.55;99475.44;4916172;28;96856;-77
2020/12/07 06:44:11;;;;;;;0.70;0.45;;;5.80;93.70;;;9.35;77.53;99468.72;4922328;28;97825;-77
2020/12/07 06:46:58;;;;;;;0.70;0.70;;;5.80;93.70;;;9.35;77.36;99461.47;4951102;28;96757;-77
2020/12/07 06:49:35;;;;;;;1.13;0.95;;;5.80;93.70;;;9.31;77.33;99470.50;4962578;28;96824;-77
2020/12/07 06:52:10;;;;;;;0.52;0.52;;;5.80;93.70;;;9.37;77.31;99479.88;4945640;28;99006;-77
2020/12/07 06:57:41;;;;;;;2.60;1.25;;;5.70;93.70;;;9.32;77.48;99467.47;4921712;28;97389;-77
2020/12/07 07:00:18;;;;;;;4.35;1.73;;;5.70;93.70;;;9.32;77.59;99472.81;4947407;28;97172;-77
2020/12/07 07:02:49;;;;;;;1.27;1.17;;;5.70;93.70;;;9.32;77.24;99469.38;4929980;28;96883;-78
2020/12/07 07:05:19;;;;;;;1.40;1.25;;;5.70;93.70;;;9.31;77.41;99478.50;4940761;28;97698;-77
2020/12/07 07:07:48;;;;;;;1.70;1.60;;;5.70;93.70;;;9.28;77.64;99484.47;4945115;28;97037;-77
2020/12/07 07:10:17;;;;;;;4.95;1.02;;;5.70;93.70;;;9.31;77.23;99487.28;4931389;28;96988;-77
2020/12/07 07:12:47;;;;;;;4.00;2.00;;;5.70;93.70;;;9.34;77.20;99500.00;4929697;28;97631;-77
2020/12/07 07:15:21;;;;;;;2.10;1.52;;;5.70;93.70;;;9.29;77.27;99496.72;4928055;28;97335;-77
2020/12/07 07:17:49;;;;;;;1.15;1.10;;;5.70;93.70;;;9.27;77.09;99496.28;4935714;28;96755;-77
2020/12/07 07:20:17;;;;;;;2.17;1.88;;;5.70;93.70;;;9.23;77.71;99497.25;4933286;28;97081;-77
2020/12/07 07:22:47;;;;;;;4.80;1.63;;;5.60;93.70;;;9.22;77.79;99504.47;4931391;28;97854;-77
2020/12/07 07:25:26;;;;;;;1.63;1.13;;;5.60;93.70;;;9.25;77.36;99500.38;4937787;28;98170;-77
2020/12/07 07:30:40;;;;;;;1.75;0.95;;;5.60;93.70;;;9.22;78.11;99504.47;4928714;28;97296;-77
2020/12/07 07:33:07;;;;;;;1.40;1.33;;;5.60;93.70;;;9.26;77.31;99501.97;4931311;28;97333;-77
2020/12/07 07:35:35;;;;;;;1.92;1.05;;;5.60;93.70;;;9.23;77.50;99498.03;4923199;28;98858;-77
2020/12/07 07:38:05;;;;;;;1.35;1.25;;;5.60;93.70;;;9.22;77.43;99496.47;4928425;28;97236;-77
2020/12/07 07:40:41;;;;;;;1.95;1.75;;;5.60;93.70;;;9.28;77.27;99495.97;4954647;28;96896;-76
2020/12/07 07:43:13;;;;;;;0.47;0.47;;;5.60;93.70;;;9.27;77.41;99489.06;4943056;28;97794;-76
2020/12/07 07:45:44;;;;;;;3.72;2.53;;;5.60;93.70;;;9.28;77.43;99493.28;4929292;28;98072;-77
2020/12/07 07:48:23;;;;;;;4.15;1.63;;;5.70;93.70;;;9.31;77.34;99494.53;4958896;28;96757;-76
2020/12/07 07:51:18;;;;;;;2.08;1.05;;;5.70;93.70;;;9.31;77.16;99503.34;4964729;28;96799;-76
2020/12/07 07:54:13;;;;;;;1.05;0.90;;;5.70;93.70;;;9.35;77.09;99498.91;4932210;28;96749;-76
2020/12/07 08:00:20;;;;;;;2.65;1.38;;;5.70;93.70;;;9.40;76.80;99503.28;4938909;28;97957;-77
2020/12/07 08:17:04;;;;;;;1.65;1.52;;;5.70;93.60;;;9.33;77.41;99511.03;4913401;28;97914;-77
2020/12/07 08:19:32;;;;;;;2.05;1.95;;;5.80;93.60;;;9.45;76.97;99509.22;4928762;28;97267;-77
2020/12/07 08:22:16;;;;;;;3.33;2.42;;;5.80;93.70;;;9.44;76.97;99510.31;4945882;28;96702;-77
2020/12/07 08:24:55;;;;;;;2.78;1.63;;;5.80;93.70;;;9.34;77.17;99512.59;4947940;28;96827;-77
2020/12/07 08:27:30;;;;;;;0.77;0.65;;;5.80;93.60;;;9.34;77.33;99516.03;4932135;28;96889;-77
2020/12/07 08:30:03;;;;;;;1.75;1.65;;;5.80;93.70;;;9.35;77.39;99519.53;4933130;28;97848;-77
2020/12/07 08:32:34;;;;;;;1.85;1.65;;;5.80;93.60;;;9.39;77.28;99525.78;4940453;28;96916;-77
2020/12/07 08:35:13;;;;;;;2.33;2.10;;;5.80;93.60;;;9.37;77.10;99528.00;4930629;28;97548;-77
2020/12/07 08:37:45;;;;;;;1.70;1.40;;;5.80;93.60;;;9.33;77.40;99530.53;4921697;28;98050;-76
2020/12/07 08:40:13;;;;;;;3.35;2.03;;;5.80;93.60;;;9.34;77.33;99520.63;4935963;28;96957;-76
2020/12/07 08:42:42;;;;;;;7.97;1.83;;;5.80;93.60;;;9.40;77.11;99532.69;4939746;28;96804;-76
2020/12/07 08:45:10;;;;;;;4.90;2.97;;;5.80;93.60;;;9.54;76.79;99543.94;4945846;28;98292;-76
2020/12/07 08:47:38;;;;;;;6.47;2.50;;;5.80;93.60;;;9.54;76.67;99543.94;4941655;28;98003;-77
2020/12/07 08:50:05;;;;;;;2.15;1.95;;;5.80;93.60;;;9.59;76.47;99546.41;4946397;28;97751;-77
2020/12/07 08:52:33;;;;;;;2.63;2.42;;;5.80;93.60;;;9.65;76.12;99551.25;4944505;28;96727;-77
2020/12/07 08:55:02;;;;;;;1.83;1.13;;;5.80;93.60;;;9.72;76.06;99550.75;4955210;28;97057;-77
2020/12/07 08:57:30;;;;;;;1.83;1.73;;;5.80;93.60;;;9.76;75.71;99559.69;4926079;28;97888;-76
2020/12/07 08:59:58;;;;;;;1.48;1.38;;;5.80;93.60;;;9.71;75.93;99570.59;4943816;28;97943;-77
2020/12/07 09:02:26;;;;;;;3.45;1.67;;;5.70;93.60;;;9.62;76.08;99569.84;4948384;28;96747;-77
2020/12/07 09:04:54;;;;;;;1.67;1.58;;;5.80;93.60;;;9.64;76.16;99562.28;4938458;28;97605;-76
2020/12/07 09:07:25;;;;;;;5.50;1.75;;;5.80;93.60;;;9.55;76.39;99559.66;4946704;28;96985;-76
2020/12/07 09:09:53;;;;;;;3.83;2.47;;;5.70;93.60;;;9.55;76.37;99561.53;4928361;28;96727;-76
2020/12/07 09:12:20;;;;;;;1.50;1.40;;;5.70;93.60;;;9.62;76.34;99562.59;4959364;28;97417;-76
2020/12/07 09:14:48;;;;;;;5.95;2.47;;;5.70;93.60;;;9.66;76.07;99557.41;4934755;28;97120;-76
2020/12/07 09:17:16;;;;;;;5.43;1.35;;;5.80;93.60;;;9.56;76.39;99563.09;4963243;28;97446;-76
2020/12/07 09:19:44;;;;;;;5.35;2.75;;;5.80;93.60;;;9.60;76.67;99561.34;4927168;28;97360;-76
2020/12/07 09:22:12;;;;;;;3.05;2.50;;;5.80;93.60;;;9.57;76.36;99556.66;4928315;28;97167;-77
2020/12/07 09:24:39;;;;;;;6.15;2.28;;;5.80;93.60;;;9.53;76.61;99561.06;4928150;28;96905;-77
2020/12/07 09:27:07;;;;;;;4.75;2.65;;;5.80;93.60;;;9.54;76.55;99559.97;4931207;28;97912;-77
2020/12/07 09:29:35;;;;;;;1.08;1.02;;;5.80;93.60;;;9.54;76.58;99565.31;4960326;28;97684;-77
2020/12/07 09:32:04;;;;;;;2.63;1.98;;;5.80;93.60;;;9.50;76.71;99575.09;4930309;28;97253;-77
2020/12/07 09:34:31;;;;;;;1.27;1.00;;;5.80;93.60;;;9.53;76.44;99563.75;4932536;28;97077;-77
2020/12/07 09:37:00;;;;;;;2.00;1.67;;;5.80;93.60;;;9.56;76.52;99557.75;4936125;28;98500;-76
2020/12/07 09:39:30;;;;;;;2.28;1.45;;;5.80;93.60;;;9.57;76.46;99562.00;4939100;28;96967;-77
2020/12/07 09:41:58;;;;;;;1.90;1.58;;;5.80;93.60;;;9.59;76.18;99576.63;4939855;28;96715;-76
2020/12/07 09:44:26;;;;;;;4.53;2.70;;;5.80;93.60;;;9.56;76.46;99579.16;4918376;28;96865;-76
2020/12/07 09:46:54;;;;;;;4.32;2.20;;;5.80;93.60;;;9.55;76.52;99582.94;4940043;28;96733;-76
2020/12/07 09:49:21;;;;;;;2.05;1.88;;;5.80;93.60;;;9.60;76.51;99580.88;4945050;28;99873;-76
2020/12/07 09:51:49;;;;;;;0.57;0.57;;;5.80;93.60;;;9.68;76.07;99587.28;4952491;28;96820;-76
2020/12/07 09:54:18;;;;;;;9.27;2.63;;;5.80;93.60;;;9.62;76.51;99588.56;4932361;28;97404;-76
2020/12/07 09:56:46;;;;;;;1.75;0.75;;;5.80;93.60;;;9.60;76.41;99586.22;4926386;28;96976;-76
2020/12/07 09:59:13;;;;;;;1.27;1.20;;;5.80;93.60;;;9.66;76.31;99586.81;4949113;28;98164;-76
2020/12/07 10:01:41;;;;;;;2.83;1.48;;;5.80;93.60;;;9.60;76.57;99588.09;4932632;28;96840;-76
2020/12/07 10:04:09;;;;;;;2.72;1.67;;;5.90;93.60;;;9.61;76.70;99587.00;4967355;28;97364;-76
2020/12/07 10:06:36;;;;;;;1.83;1.65;;;5.90;93.60;;;9.60;77.22;99588.88;4968585;28;97826;-76
2020/12/07 10:09:05;;;;;;;1.55;1.42;;;5.90;93.60;;;9.65;76.61;99588.69;4941163;28;96810;-76
2020/12/07 10:11:34;;;;;;;2.55;2.35;;;5.90;93.60;;;9.61;76.52;99597.72;4968194;28;97144;-78
2020/12/07 10:14:04;;;;;;;3.22;2.28;;;5.90;93.60;;;9.56;77.03;99600.53;4936070;28;97192;-76
2020/12/07 10:16:32;;;;;;;5.18;1.90;;;5.90;93.60;;;9.50;77.10;99602.63;4927833;28;97810;-76
2020/12/07 10:18:59;;;;;;;2.38;1.38;;;5.90;93.60;;;9.45;77.13;99607.38;4921591;28;96825;-76
2020/12/07 10:21:33;;;;;;;1.10;0.68;;;5.90;93.60;;;9.50;77.25;99601.84;4961620;28;97051;-76
2020/12/07 10:24:03;;;;;;;4.80;0.98;;;5.90;93.60;;;9.59;76.81;99610.59;4923613;28;97996;-76
2020/12/07 10:26:34;;;;;;;1.33;1.30;;;5.90;93.60;;;9.63;77.17;99609.63;4923030;28;97105;-76
2020/12/07 10:29:04;;;;;;;2.30;1.50;;;5.90;93.60;;;9.65;76.58;99610.09;4961538;28;97766;-76
2020/12/07 10:31:42;;;;;;;1.13;0.98;;;5.90;93.60;;;9.65;76.72;99620.03;4929095;28;96749;-76
2020/12/07 10:34:10;;;;;;;1.92;1.60;;;5.90;93.50;;;9.68;76.67;99622.81;4917510;28;96886;-76
2020/12/07 10:36:38;;;;;;;2.67;2.22;;;5.90;93.50;;;9.69;76.59;99623.63;4945964;28;97921;-76
2020/12/07 10:39:07;;;;;;;1.35;1.02;;;6.00;93.60;;;9.69;76.57;99624.38;4927738;28;97546;-76
2020/12/07 10:41:35;;;;;;;2.03;1.67;;;6.00;93.50;;;9.69;76.34;99631.63;4940061;28;98318;-76
2020/12/07 10:44:04;;;;;;;3.33;1.85;;;6.00;93.50;;;9.70;76.84;99633.22;4910310;28;96834;-76
2020/12/07 10:46:32;;;;;;;1.65;1.45;;;6.00;93.80;;;9.70;76.67;99646.59;4970828;28;97261;-76
2020/12/07 10:49:00;;;;;;;3.25;2.03;;;6.00;93.50;;;9.71;76.96;99643.56;4930628;28;98021;-75
2020/12/07 10:51:30;;;;;;;1.45;0.98;;;6.00;93.50;;;9.69;76.66;99637.75;4967588;28;96928;-75
2020/12/07 10:53:59;;;;;;;4.63;3.30;;;6.00;93.50;;;9.64;76.77;99656.66;4909755;28;97313;-75
2020/12/07 10:56:30;;;;;;;4.45;2.53;;;6.00;93.50;;;9.71;76.79;99645.47;4912544;28;97747;-76
2020/12/07 10:58:59;;;;;;;4.13;1.85;;;6.00;93.50;;;9.83;76.85;99653.59;4950933;28;97764;-75
2020/12/07 11:01:28;;;;;;;2.45;1.73;;;6.00;93.50;;;9.79;76.41;99650.00;4907836;28;96762;-75
2020/12/07 11:03:56;;;;;;;1.73;1.45;;;6.10;93.50;;;9.73;76.78;99645.94;4930486;28;97069;-75
2020/12/07 11:06:28;;;;;;;3.05;2.47;;;6.10;93.50;;;9.76;76.71;99653.31;4964765;28;99007;-75
2020/12/07 11:08:57;;;;;;;4.70;1.95;;;6.10;93.50;;;9.79;76.52;99656.13;4931531;28;97341;-75